4N1 weather

Greenwood Lake Airport
West Milford, New Jersey, United States

Public forecast

Using degrees Fahrenheit for public forecast. Weather courtesy of forecast.io.

Closest aviation weather report (METAR) to Greenwood Lake Airport

Closest report is Sussex Airport, 13.2 nm (24.5 km) WNW. Retrieved 2019/11/13 12:53 UTC (51 minutes ago):

KFWN 131253Z AUTO 28004KT 10SM FEW026 M06/M13 A3028 RMK AO2 SLP258 T10611128

Closest aviation forecast (TAF) to Greenwood Lake Airport

Closest forecast is Teterboro Airport, 21.1 nm (39.1 km) SE. Retrieved 2019/11/13 12:33 UTC (1 hour ago):

TAF KTEB 131130Z 1312/1418 31011G22KT P6SM SKC FM132000 32009KT P6SM SKC FM132300 33005KT P6SM SKC FM140200 VRB03KT P6SM FEW250 FM141400 17006KT P6SM SCT100 SCT250